Tyrone, Pennsylvania
Current Conditions -  °F | °C
As of 7:53 PM on Sunday 23 Nov 2014 (Local Time) from KUNV Reporting Station
Clear Clear  
Wind Chill: 10°   Ceiling: Unl
Heat Index: 10°   Visibility: 10mi
Dew Point: -2°   Wind: 6mph
Humidity: 43%   Direction: 170°S
Pressure: 29.93"   Gusts: NA
Location:  40.68°N, 78.24°W
Report Text: KUNV 240053Z 17005KT 10SM SKC 10/M02 A2993
Loading
Personal Weather Stations






























Interactive Weather Map New forecast layout! Learn more

10-Day Weather Forecast

Advertisements
Track Severe Weather on mobile